Time;durP1;ratioP1;P1;durP2;ratioP2;P2;SDS_P1;SDS_P2;PMS_P1;PMS_P2;Temp;Humidity;BMP_temperature;BMP_pressure;BME280_temperature;BME280_humidity;BME280_pressure;Samples;Min_cycle;Max_cycle;Signal;HPM_P1;HPM_P2
2022/03/20 00:01:02;;;;;;;38.08;34.88;;;;;;;;;;4972070;28;20535;-62
2022/03/20 00:03:28;;;;;;;36.70;33.60;;;;;;;;;;4972099;28;20254;-62
2022/03/20 00:05:54;;;;;;;50.13;43.83;;;;;;;;;;4972411;28;20201;-62
2022/03/20 00:08:20;;;;;;;49.20;43.47;;;;;;;;;;4972292;28;20207;-63
2022/03/20 00:10:48;;;;;;;59.15;47.67;;;;;;;;;;4972081;28;20491;-62
2022/03/20 00:13:18;;;;;;;52.95;45.10;;;;;;;;;;4972442;28;20183;-61
2022/03/20 00:15:45;;;;;;;49.65;44.20;;;;;;;;;;4972076;28;20191;-62
2022/03/20 00:18:12;;;;;;;53.20;44.05;;;;;;;;;;4972226;28;20178;-62
2022/03/20 00:20:40;;;;;;;57.63;47.45;;;;;;;;;;4971952;28;20525;-62
2022/03/20 00:23:08;;;;;;;62.33;46.95;;;;;;;;;;4972124;28;20179;-63
2022/03/20 00:25:34;;;;;;;64.28;46.28;;;;;;;;;;4971912;28;20287;-62
2022/03/20 00:28:00;;;;;;;66.00;49.03;;;;;;;;;;4974390;28;20200;-62
2022/03/20 00:30:26;;;;;;;48.80;43.47;;;;;;;;;;4975126;28;20196;-60
2022/03/20 00:32:52;;;;;;;61.63;47.73;;;;;;;;;;4975658;28;20180;-61
2022/03/20 00:35:18;;;;;;;60.17;46.57;;;;;;;;;;4975476;28;20435;-62
2022/03/20 00:37:44;;;;;;;54.55;44.58;;;;;;;;;;4975384;28;20413;-60
2022/03/20 00:40:10;;;;;;;58.40;46.60;;;;;;;;;;4975260;28;20173;-61
2022/03/20 00:42:36;;;;;;;50.58;42.78;;;;;;;;;;4975323;28;20417;-63
2022/03/20 00:45:04;;;;;;;45.53;40.90;;;;;;;;;;4975205;28;20180;-62
2022/03/20 00:47:30;;;;;;;43.42;39.15;;;;;;;;;;4975654;28;20411;-63
2022/03/20 00:49:56;;;;;;;46.43;41.73;;;;;;;;;;4975621;28;20597;-63
2022/03/20 00:52:22;;;;;;;40.67;36.93;;;;;;;;;;4975056;28;20523;-62
2022/03/20 00:54:48;;;;;;;43.27;39.27;;;;;;;;;;4975162;28;20476;-64
2022/03/20 00:57:14;;;;;;;46.13;41.38;;;;;;;;;;4974936;28;20978;-63
2022/03/20 00:59:41;;;;;;;44.47;40.27;;;;;;;;;;4974781;28;20185;-62
2022/03/20 01:02:08;;;;;;;45.83;41.20;;;;;;;;;;4974590;28;20509;-60
2022/03/20 01:04:34;;;;;;;42.65;38.45;;;;;;;;;;4975090;28;20178;-59
2022/03/20 01:07:01;;;;;;;47.85;42.80;;;;;;;;;;4975217;28;20193;-62
2022/03/20 01:09:28;;;;;;;51.60;43.88;;;;;;;;;;4975146;28;20168;-62
2022/03/20 01:11:55;;;;;;;47.40;42.22;;;;;;;;;;4974949;28;20221;-62
2022/03/20 01:14:21;;;;;;;54.20;44.05;;;;;;;;;;4975180;28;20195;-62
2022/03/20 01:16:48;;;;;;;47.38;42.25;;;;;;;;;;4974964;28;20194;-61
2022/03/20 01:19:14;;;;;;;51.30;44.60;;;;;;;;;;4975060;28;20177;-59
2022/03/20 01:21:41;;;;;;;37.55;34.45;;;;;;;;;;4974913;28;20180;-61
2022/03/20 01:24:08;;;;;;;29.02;27.02;;;;;;;;;;4975003;28;20659;-62
2022/03/20 01:26:34;;;;;;;41.50;37.67;;;;;;;;;;4974545;28;20677;-61
2022/03/20 01:29:00;;;;;;;42.95;39.05;;;;;;;;;;4974742;28;20262;-62
2022/03/20 01:31:28;;;;;;;42.80;38.83;;;;;;;;;;4974516;28;20285;-62
2022/03/20 01:33:54;;;;;;;40.25;36.65;;;;;;;;;;4974859;28;20416;-61
2022/03/20 01:36:20;;;;;;;16.60;15.90;;;;;;;;;;4974622;28;20272;-62
2022/03/20 01:38:46;;;;;;;38.63;35.30;;;;;;;;;;4974210;28;20409;-61
2022/03/20 01:41:12;;;;;;;53.57;45.47;;;;;;;;;;4974256;28;20666;-61
2022/03/20 01:43:38;;;;;;;60.17;47.17;;;;;;;;;;4974488;28;21089;-61
2022/03/20 01:46:04;;;;;;;68.10;48.80;;;;;;;;;;4974512;28;20795;-62
2022/03/20 01:48:30;;;;;;;65.63;47.00;;;;;;;;;;4974349;28;20439;-62
2022/03/20 01:50:56;;;;;;;65.70;46.17;;;;;;;;;;4974307;28;20197;-61
2022/03/20 01:53:24;;;;;;;62.72;47.03;;;;;;;;;;4974319;28;20516;-61
2022/03/20 01:55:51;;;;;;;75.80;49.22;;;;;;;;;;4974270;28;20228;-61
2022/03/20 01:58:17;;;;;;;71.30;47.72;;;;;;;;;;4974323;28;20170;-60
2022/03/20 02:00:44;;;;;;;66.75;47.80;;;;;;;;;;4973498;28;20648;-59
2022/03/20 02:03:10;;;;;;;46.50;42.05;;;;;;;;;;4974124;28;20182;-60
2022/03/20 02:05:37;;;;;;;43.38;39.10;;;;;;;;;;4974328;28;20208;-61
2022/03/20 02:08:03;;;;;;;38.38;34.90;;;;;;;;;;4974113;28;20572;-62
2022/03/20 02:10:35;;;;;;;40.50;36.85;;;;;;;;;;4973532;28;20204;-62
2022/03/20 02:13:01;;;;;;;40.20;36.42;;;;;;;;;;4973914;28;20189;-63
2022/03/20 02:15:27;;;;;;;38.92;35.47;;;;;;;;;;4973724;28;20683;-61
2022/03/20 02:17:54;;;;;;;41.72;38.00;;;;;;;;;;4973871;28;20188;-60
2022/03/20 02:20:22;;;;;;;47.30;43.10;;;;;;;;;;4973583;28;20184;-61
2022/03/20 02:22:48;;;;;;;37.45;34.40;;;;;;;;;;4973605;28;20279;-61
2022/03/20 02:25:15;;;;;;;47.67;42.72;;;;;;;;;;4973363;28;20310;-63
2022/03/20 02:27:44;;;;;;;44.67;40.53;;;;;;;;;;4973674;28;20698;-60
2022/03/20 02:30:15;;;;;;;38.75;35.35;;;;;;;;;;4973258;28;20206;-62
2022/03/20 02:32:45;;;;;;;11.27;10.93;;;;;;;;;;4973457;28;20175;-58
2022/03/20 02:35:14;;;;;;;11.70;11.30;;;;;;;;;;4973395;28;20187;-62
2022/03/20 02:37:41;;;;;;;30.50;28.30;;;;;;;;;;4973198;28;20182;-61
2022/03/20 02:40:07;;;;;;;35.33;32.28;;;;;;;;;;4973200;28;20651;-59
2022/03/20 02:42:35;;;;;;;35.00;32.10;;;;;;;;;;4973542;28;20570;-61
2022/03/20 02:45:03;;;;;;;31.23;28.73;;;;;;;;;;4972800;28;20240;-61
2022/03/20 02:47:30;;;;;;;65.60;47.72;;;;;;;;;;4973201;28;20174;-61
2022/03/20 02:50:04;;;;;;;62.05;45.58;;;;;;;;;;4972686;28;20220;-61
2022/03/20 02:52:32;;;;;;;43.35;38.78;;;;;;;;;;4972691;28;20234;-63
2022/03/20 02:55:02;;;;;;;44.92;39.88;;;;;;;;;;4973314;28;20180;-63
2022/03/20 02:57:32;;;;;;;60.65;45.97;;;;;;;;;;4973114;28;20657;-61
2022/03/20 03:00:02;;;;;;;59.20;45.97;;;;;;;;;;4972943;28;20177;-63
2022/03/20 03:02:31;;;;;;;60.45;45.70;;;;;;;;;;4973012;28;20266;-62
2022/03/20 03:04:59;;;;;;;46.17;41.22;;;;;;;;;;4973020;28;20189;-62
2022/03/20 03:07:25;;;;;;;64.10;47.15;;;;;;;;;;4972979;28;20188;-61
2022/03/20 03:12:36;;;;;;;51.33;42.70;;;;;;;;;;4973037;28;20208;-63
2022/03/20 03:15:20;;;;;;;54.97;44.00;;;;;;;;;;4972859;28;20169;-61
2022/03/20 03:17:46;;;;;;;50.80;43.22;;;;;;;;;;4972559;28;20400;-62
2022/03/20 03:20:13;;;;;;;53.17;47.35;;;;;;;;;;4972584;28;20188;-61
2022/03/20 03:22:39;;;;;;;49.85;42.42;;;;;;;;;;4973023;28;20234;-62
2022/03/20 03:25:05;;;;;;;53.35;44.95;;;;;;;;;;4972559;28;20180;-61
2022/03/20 03:27:31;;;;;;;50.47;42.83;;;;;;;;;;5026997;22;20314;-60
2022/03/20 03:29:57;;;;;;;47.47;41.00;;;;;;;;;;5011299;28;20206;-61
2022/03/20 03:32:23;;;;;;;47.53;40.83;;;;;;;;;;5011256;28;20469;-60
2022/03/20 03:37:34;;;;;;;51.10;43.03;;;;;;;;;;5011572;28;20207;-59
2022/03/20 03:40:02;;;;;;;48.00;41.70;;;;;;;;;;5011560;28;20196;-60
2022/03/20 03:42:29;;;;;;;47.05;40.55;;;;;;;;;;5011775;28;20175;-60
2022/03/20 03:44:55;;;;;;;47.92;42.67;;;;;;;;;;5011397;28;20175;-60
2022/03/20 03:47:21;;;;;;;45.73;40.93;;;;;;;;;;5011507;28;20192;-58
2022/03/20 03:49:48;;;;;;;43.88;39.28;;;;;;;;;;5011361;28;20433;-59
2022/03/20 03:52:14;;;;;;;43.08;38.80;;;;;;;;;;5010990;28;20202;-58
2022/03/20 03:54:40;;;;;;;43.28;38.90;;;;;;;;;;5011263;28;20177;-56
2022/03/20 03:57:06;;;;;;;45.10;40.53;;;;;;;;;;5011166;28;20278;-59
2022/03/20 03:59:32;;;;;;;44.00;39.57;;;;;;;;;;5011346;28;20616;-59
2022/03/20 04:02:00;;;;;;;44.30;39.75;;;;;;;;;;5011611;28;20854;-61
2022/03/20 04:04:26;;;;;;;42.00;37.97;;;;;;;;;;5014894;28;20176;-59
2022/03/20 04:06:52;;;;;;;40.80;36.87;;;;;;;;;;5014917;28;20204;-60
2022/03/20 04:09:17;;;;;;;44.30;39.80;;;;;;;;;;5014860;28;20888;-58
2022/03/20 04:11:44;;;;;;;46.90;42.13;;;;;;;;;;5014535;28;20967;-60
2022/03/20 04:14:10;;;;;;;42.25;38.15;;;;;;;;;;5014839;28;20431;-59
2022/03/20 04:16:36;;;;;;;45.78;40.80;;;;;;;;;;5014826;28;20199;-59
2022/03/20 04:19:02;;;;;;;41.15;37.13;;;;;;;;;;5014640;28;20183;-60
2022/03/20 04:21:28;;;;;;;42.07;37.87;;;;;;;;;;5014514;28;20259;-60
2022/03/20 04:23:55;;;;;;;30.48;28.20;;;;;;;;;;5014648;28;20887;-60
2022/03/20 04:26:22;;;;;;;27.20;25.38;;;;;;;;;;5014522;28;20227;-60
2022/03/20 04:28:48;;;;;;;28.45;26.55;;;;;;;;;;5014768;28;20183;-58
2022/03/20 04:31:17;;;;;;;29.38;27.33;;;;;;;;;;5013499;28;20215;-60
2022/03/20 04:33:44;;;;;;;19.05;18.15;;;;;;;;;;5014417;28;20528;-60
2022/03/20 04:36:10;;;;;;;24.00;22.63;;;;;;;;;;5014458;28;20582;-59
2022/03/20 04:38:36;;;;;;;19.95;18.95;;;;;;;;;;5014361;28;20174;-60
2022/03/20 04:41:03;;;;;;;2.90;2.80;;;;;;;;;;5014090;28;20184;-59
2022/03/20 04:43:29;;;;;;;12.07;11.68;;;;;;;;;;5014502;28;20828;-59
2022/03/20 04:45:55;;;;;;;35.50;32.60;;;;;;;;;;5014030;28;20203;-58
2022/03/20 04:59:20;;;;;;;10.05;9.75;;;;;;;;;;5013916;28;20590;-60
2022/03/20 05:01:46;;;;;;;32.85;30.42;;;;;;;;;;5013724;28;20186;-60
2022/03/20 05:04:13;;;;;;;23.80;22.48;;;;;;;;;;5013993;28;20728;-59
2022/03/20 05:06:39;;;;;;;23.17;21.92;;;;;;;;;;5013879;28;20602;-57
2022/03/20 05:14:34;;;;;;;36.13;33.28;;;;;;;;;;5012766;28;20565;-56
2022/03/20 05:17:00;;;;;;;42.57;38.53;;;;;;;;;;5013590;28;20186;-59
2022/03/20 05:19:26;;;;;;;38.20;34.90;;;;;;;;;;5013580;28;20418;-57
2022/03/20 05:21:52;;;;;;;40.28;36.67;;;;;;;;;;5013370;28;20212;-60
2022/03/20 05:24:18;;;;;;;32.50;29.97;;;;;;;;;;5013465;28;20264;-61
2022/03/20 05:26:44;;;;;;;37.07;33.90;;;;;;;;;;5013264;28;20451;-58
2022/03/20 05:29:10;;;;;;;40.57;37.13;;;;;;;;;;5013368;28;20419;-58
2022/03/20 05:31:36;;;;;;;42.63;38.73;;;;;;;;;;5013221;28;20498;-60
2022/03/20 05:34:02;;;;;;;28.23;26.48;;;;;;;;;;5013384;28;20469;-59
2022/03/20 05:36:29;;;;;;;41.47;37.87;;;;;;;;;;5013296;28;20532;-60
2022/03/20 05:38:57;;;;;;;46.13;41.63;;;;;;;;;;5013177;28;20404;-60
2022/03/20 05:44:11;;;;;;;49.45;44.25;;;;;;;;;;5013155;28;20183;-60
2022/03/20 05:46:37;;;;;;;51.70;45.92;;;;;;;;;;5012033;28;20663;-58
2022/03/20 05:49:03;;;;;;;50.90;45.60;;;;;;;;;;5012622;28;20182;-60
2022/03/20 05:51:30;;;;;;;51.63;45.80;;;;;;;;;;5012686;28;20505;-59
2022/03/20 05:53:57;;;;;;;36.33;33.60;;;;;;;;;;5013193;28;20853;-59
2022/03/20 05:59:07;;;;;;;24.17;22.85;;;;;;;;;;5013173;28;20194;-58
2022/03/20 06:01:33;;;;;;;24.43;23.03;;;;;;;;;;5012673;28;20176;-60
2022/03/20 06:04:00;;;;;;;39.83;36.60;;;;;;;;;;5012044;28;20422;-59
2022/03/20 06:06:26;;;;;;;50.75;45.47;;;;;;;;;;5011575;28;20427;-57
2022/03/20 06:08:52;;;;;;;57.78;52.22;;;;;;;;;;5009398;28;20185;-56
2022/03/20 06:11:18;;;;;;;51.90;46.60;;;;;;;;;;5011262;28;20223;-56
2022/03/20 06:13:45;;;;;;;53.47;47.88;;;;;;;;;;5011993;28;20415;-57
2022/03/20 06:16:12;;;;;;;45.78;41.50;;;;;;;;;;5012350;28;20275;-55
2022/03/20 06:18:39;;;;;;;41.63;38.22;;;;;;;;;;5012457;28;20168;-55
2022/03/20 06:21:06;;;;;;;43.00;39.50;;;;;;;;;;5012423;28;20177;-56
2022/03/20 06:23:33;;;;;;;35.72;33.05;;;;;;;;;;5012504;28;20173;-58
2022/03/20 06:25:59;;;;;;;40.63;37.47;;;;;;;;;;5012169;28;20668;-58
2022/03/20 06:28:26;;;;;;;35.87;33.17;;;;;;;;;;5012477;28;20201;-58
2022/03/20 06:30:52;;;;;;;36.45;33.85;;;;;;;;;;5012046;28;20455;-59
2022/03/20 06:33:18;;;;;;;27.63;26.03;;;;;;;;;;5012207;28;20202;-58
2022/03/20 06:35:44;;;;;;;10.50;10.20;;;;;;;;;;5012415;28;20404;-60
2022/03/20 06:38:10;;;;;;;31.63;29.63;;;;;;;;;;5012316;28;20277;-59
2022/03/20 06:40:36;;;;;;;49.30;44.38;;;;;;;;;;5012237;28;20435;-60
2022/03/20 06:43:02;;;;;;;35.85;33.17;;;;;;;;;;5012293;28;20260;-60
2022/03/20 06:45:28;;;;;;;51.55;46.25;;;;;;;;;;5012163;28;20235;-59
2022/03/20 06:47:54;;;;;;;57.80;48.85;;;;;;;;;;5011978;28;20707;-60
2022/03/20 06:50:21;;;;;;;65.00;54.50;;;;;;;;;;5011786;28;20548;-60
2022/03/20 06:52:47;;;;;;;65.85;53.08;;;;;;;;;;5012089;28;20173;-61
2022/03/20 06:55:14;;;;;;;65.30;51.97;;;;;;;;;;5011990;28;20188;-60
2022/03/20 06:57:44;;;;;;;76.07;68.03;;;;;;;;;;5010795;28;20197;-60
2022/03/20 07:00:11;;;;;;;58.67;51.15;;;;;;;;;;5011358;28;20204;-61
2022/03/20 07:02:37;;;;;;;66.45;52.95;;;;;;;;;;5012181;28;20204;-59
2022/03/20 07:05:03;;;;;;;64.15;52.17;;;;;;;;;;5012173;28;20551;-61
2022/03/20 07:07:29;;;;;;;66.32;53.55;;;;;;;;;;5011874;28;20204;-61
2022/03/20 07:09:55;;;;;;;72.00;52.70;;;;;;;;;;5011932;28;20226;-60
2022/03/20 07:12:21;;;;;;;72.60;54.38;;;;;;;;;;5011554;28;20818;-60
2022/03/20 07:14:47;;;;;;;62.07;53.90;;;;;;;;;;5011753;28;20179;-61
2022/03/20 07:17:14;;;;;;;60.97;54.37;;;;;;;;;;5010034;28;20513;-61
2022/03/20 07:19:43;;;;;;;58.72;51.88;;;;;;;;;;5010093;28;20411;-61
2022/03/20 07:22:10;;;;;;;59.28;51.30;;;;;;;;;;5011546;28;20192;-62
2022/03/20 07:24:40;;;;;;;65.30;55.75;;;;;;;;;;5010874;28;20177;-59
2022/03/20 07:29:51;;;;;;;52.28;47.85;;;;;;;;;;5011787;28;20192;-60
2022/03/20 07:32:17;;;;;;;29.05;27.45;;;;;;;;;;4993647;28;20205;-61
2022/03/20 07:34:45;;;;;;;38.63;36.00;;;;;;;;;;5011503;28;20177;-58
2022/03/20 07:37:11;;;;;;;59.97;54.30;;;;;;;;;;5012159;28;20452;-61
2022/03/20 07:39:37;;;;;;;62.40;56.10;;;;;;;;;;5015598;28;20232;-61
2022/03/20 07:42:03;;;;;;;64.10;57.90;;;;;;;;;;5015167;28;20166;-61
2022/03/20 07:44:31;;;;;;;62.60;56.78;;;;;;;;;;5015159;28;20649;-58
2022/03/20 07:46:57;;;;;;;67.47;61.17;;;;;;;;;;5015327;28;20209;-61
2022/03/20 07:49:23;;;;;;;54.28;49.97;;;;;;;;;;5014971;28;20197;-61
2022/03/20 07:51:50;;;;;;;67.90;61.50;;;;;;;;;;5015123;28;20276;-60
2022/03/20 07:54:16;;;;;;;65.85;60.15;;;;;;;;;;5015232;28;20584;-60
2022/03/20 07:56:42;;;;;;;54.40;50.60;;;;;;;;;;5015128;28;20197;-61
2022/03/20 07:59:09;;;;;;;53.95;50.20;;;;;;;;;;5014837;28;20172;-61
2022/03/20 08:01:36;;;;;;;37.38;35.38;;;;;;;;;;5014867;28;20664;-59
2022/03/20 08:04:02;;;;;;;62.08;57.28;;;;;;;;;;5015127;28;20264;-61
2022/03/20 08:06:28;;;;;;;70.00;63.90;;;;;;;;;;5014888;28;20668;-61
2022/03/20 08:08:54;;;;;;;80.35;73.20;;;;;;;;;;5014929;28;20556;-60
2022/03/20 08:11:20;;;;;;;48.10;45.00;;;;;;;;;;5014570;28;20271;-61
2022/03/20 08:13:46;;;;;;;59.53;55.42;;;;;;;;;;5014784;28;20884;-61
2022/03/20 08:16:15;;;;;;;84.30;77.00;;;;;;;;;;5014627;28;20201;-61
2022/03/20 08:18:43;;;;;;;63.08;58.42;;;;;;;;;;5014802;28;20605;-61
2022/03/20 08:21:09;;;;;;;74.72;68.22;;;;;;;;;;5013979;28;20180;-59
2022/03/20 08:23:36;;;;;;;63.50;58.75;;;;;;;;;;5014343;28;20177;-60
2022/03/20 08:26:02;;;;;;;53.72;49.92;;;;;;;;;;5014860;28;20213;-60
2022/03/20 08:28:28;;;;;;;46.77;43.97;;;;;;;;;;5014594;28;20211;-61
2022/03/20 08:30:54;;;;;;;45.90;43.20;;;;;;;;;;5014043;28;20447;-61
2022/03/20 08:33:20;;;;;;;48.90;45.90;;;;;;;;;;5014561;28;20413;-61
2022/03/20 08:35:46;;;;;;;44.23;41.80;;;;;;;;;;5014431;28;20178;-62
2022/03/20 08:38:12;;;;;;;72.30;66.90;;;;;;;;;;5014466;28;20441;-61
2022/03/20 08:40:38;;;;;;;54.80;51.27;;;;;;;;;;5014123;28;20503;-60
2022/03/20 08:43:04;;;;;;;38.17;36.38;;;;;;;;;;5014358;28;20417;-60
2022/03/20 08:45:31;;;;;;;38.63;36.63;;;;;;;;;;5014289;28;20553;-59
2022/03/20 08:47:58;;;;;;;90.47;84.15;;;;;;;;;;5014306;28;20181;-61
2022/03/20 08:50:24;;;;;;;87.03;81.38;;;;;;;;;;5013846;28;20216;-61
2022/03/20 08:52:50;;;;;;;99.18;92.68;;;;;;;;;;5014078;28;20174;-60
2022/03/20 08:55:17;;;;;;;105.97;99.20;;;;;;;;;;5014232;28;20277;-59
2022/03/20 08:57:48;;;;;;;107.37;100.77;;;;;;;;;;5013974;28;20241;-61
2022/03/20 09:00:14;;;;;;;108.23;102.10;;;;;;;;;;5013835;28;20896;-60
2022/03/20 09:02:43;;;;;;;124.23;117.77;;;;;;;;;;5014084;28;20405;-61
2022/03/20 09:05:11;;;;;;;169.17;160.27;;;;;;;;;;5013947;28;20830;-61
2022/03/20 09:07:37;;;;;;;211.77;201.20;;;;;;;;;;5013859;28;20433;-61
2022/03/20 09:10:03;;;;;;;226.97;216.20;;;;;;;;;;5014151;28;20413;-61
2022/03/20 09:12:30;;;;;;;283.80;271.03;;;;;;;;;;5014327;28;20839;-59
2022/03/20 09:14:56;;;;;;;306.17;293.77;;;;;;;;;;5014487;28;20413;-61
2022/03/20 09:20:07;;;;;;;289.53;278.83;;;;;;;;;;5013512;28;20855;-60
2022/03/20 09:22:34;;;;;;;314.07;302.80;;;;;;;;;;5013922;28;20401;-59
2022/03/20 09:25:00;;;;;;;312.37;301.27;;;;;;;;;;5013787;28;20388;-60
2022/03/20 09:27:26;;;;;;;357.07;344.33;;;;;;;;;;5036300;23;20463;-62
2022/03/20 09:29:52;;;;;;;412.90;397.67;;;;;;;;;;5013009;28;20494;-62
2022/03/20 09:32:20;;;;;;;386.53;372.50;;;;;;;;;;5012619;28;20520;-62
2022/03/20 09:34:46;;;;;;;361.47;348.77;;;;;;;;;;5013225;28;20439;-62
2022/03/20 09:37:12;;;;;;;313.77;303.17;;;;;;;;;;5013226;28;20456;-62
2022/03/20 09:39:38;;;;;;;354.10;341.67;;;;;;;;;;5013206;28;20813;-62
2022/03/20 09:42:06;;;;;;;384.13;369.97;;;;;;;;;;5013153;28;20386;-62
2022/03/20 09:44:33;;;;;;;354.93;342.13;;;;;;;;;;5013259;28;20414;-62
2022/03/20 09:47:00;;;;;;;353.10;340.13;;;;;;;;;;5013010;28;20400;-62
2022/03/20 09:49:26;;;;;;;325.00;312.47;;;;;;;;;;5012860;28;20421;-61
2022/03/20 09:51:52;;;;;;;226.87;218.87;;;;;;;;;;5012722;28;20456;-62
2022/03/20 09:54:18;;;;;;;321.83;309.67;;;;;;;;;;5012756;28;20751;-62
2022/03/20 09:56:44;;;;;;;304.57;293.27;;;;;;;;;;5012640;28;20843;-62
2022/03/20 09:59:10;;;;;;;309.30;298.10;;;;;;;;;;5012750;28;20404;-62
2022/03/20 10:01:37;;;;;;;385.20;370.73;;;;;;;;;;5012369;28;20395;-62
2022/03/20 10:04:10;;;;;;;326.47;315.27;;;;;;;;;;5012867;28;20415;-62
2022/03/20 10:06:40;;;;;;;361.00;348.40;;;;;;;;;;5012783;28;20912;-62
2022/03/20 10:09:13;;;;;;;353.93;341.47;;;;;;;;;;5012538;28;20422;-62
2022/03/20 10:11:47;;;;;;;265.63;257.13;;;;;;;;;;5012486;28;20462;-62
2022/03/20 10:14:15;;;;;;;354.60;341.80;;;;;;;;;;5012587;28;20458;-62
2022/03/20 10:16:48;;;;;;;367.57;354.33;;;;;;;;;;5012845;28;20438;-62
2022/03/20 10:19:23;;;;;;;393.57;379.00;;;;;;;;;;5012746;28;20859;-62
2022/03/20 10:21:57;;;;;;;366.23;352.97;;;;;;;;;;5012311;28;20907;-62
2022/03/20 10:24:24;;;;;;;372.00;358.70;;;;;;;;;;5012317;28;20917;-62
2022/03/20 10:27:03;;;;;;;347.57;334.83;;;;;;;;;;5012125;28;20522;-62
2022/03/20 10:29:31;;;;;;;194.67;188.27;;;;;;;;;;5012348;28;20463;-62
2022/03/20 10:32:00;;;;;;;244.87;236.13;;;;;;;;;;5012012;28;20464;-62
2022/03/20 10:34:26;;;;;;;300.67;288.40;;;;;;;;;;5012324;28;20399;-63
2022/03/20 10:36:52;;;;;;;292.53;279.70;;;;;;;;;;5012217;28;20800;-63
2022/03/20 10:39:19;;;;;;;243.17;232.67;;;;;;;;;;5012092;28;20408;-63
2022/03/20 10:41:46;;;;;;;226.17;216.10;;;;;;;;;;5011919;28;20415;-61
2022/03/20 10:44:13;;;;;;;227.77;216.60;;;;;;;;;;5012208;28;20516;-61
2022/03/20 10:46:39;;;;;;;205.73;195.43;;;;;;;;;;5011648;28;20420;-60
2022/03/20 10:49:06;;;;;;;207.53;197.13;;;;;;;;;;5012471;28;20407;-63
2022/03/20 10:51:39;;;;;;;106.17;101.87;;;;;;;;;;5011787;28;20858;-61
2022/03/20 10:54:15;;;;;;;108.93;104.43;;;;;;;;;;5012278;28;20500;-63
2022/03/20 10:56:54;;;;;;;86.80;83.30;;;;;;;;;;5011943;28;20424;-63
2022/03/20 10:59:20;;;;;;;100.60;96.40;;;;;;;;;;5012069;28;20413;-63
2022/03/20 11:01:47;;;;;;;95.97;91.97;;;;;;;;;;5011713;28;20412;-62
2022/03/20 11:04:14;;;;;;;70.87;67.87;;;;;;;;;;5012028;28;20503;-63
2022/03/20 11:06:47;;;;;;;91.90;88.10;;;;;;;;;;5011728;28;20481;-63
2022/03/20 11:09:13;;;;;;;106.03;101.47;;;;;;;;;;5012030;28;20404;-63
2022/03/20 11:11:45;;;;;;;221.37;208.70;;;;;;;;;;5011104;28;20496;-63
2022/03/20 11:14:15;;;;;;;142.93;136.33;;;;;;;;;;5011879;28;20417;-63
2022/03/20 11:16:42;;;;;;;85.80;82.30;;;;;;;;;;4994185;28;20441;-62
2022/03/20 11:19:11;;;;;;;139.67;133.40;;;;;;;;;;5011866;28;20731;-63
2022/03/20 11:21:39;;;;;;;102.60;98.60;;;;;;;;;;5011785;28;20906;-62
2022/03/20 11:24:05;;;;;;;130.93;125.53;;;;;;;;;;5012072;28;20458;-63
2022/03/20 11:26:32;;;;;;;131.57;125.97;;;;;;;;;;5011707;28;21322;-62
2022/03/20 11:29:00;;;;;;;158.67;151.93;;;;;;;;;;5011635;28;20900;-63
2022/03/20 11:31:26;;;;;;;177.70;170.63;;;;;;;;;;5011596;28;20535;-63
2022/03/20 11:33:54;;;;;;;260.73;249.93;;;;;;;;;;5011638;28;20409;-63
2022/03/20 11:36:20;;;;;;;231.87;223.37;;;;;;;;;;5011422;28;20432;-63
2022/03/20 11:39:06;;;;;;;216.33;208.63;;;;;;;;;;5011573;28;20413;-63
2022/03/20 11:41:32;;;;;;;243.20;234.63;;;;;;;;;;5011644;28;20455;-63
2022/03/20 11:44:23;;;;;;;303.33;292.17;;;;;;;;;;5011757;28;20896;-63
2022/03/20 11:47:07;;;;;;;317.90;306.47;;;;;;;;;;5011538;28;20426;-63
2022/03/20 11:49:34;;;;;;;309.00;298.27;;;;;;;;;;5011797;28;20942;-63
2022/03/20 11:52:02;;;;;;;322.53;311.47;;;;;;;;;;5011260;28;20868;-63
2022/03/20 11:54:29;;;;;;;379.10;365.37;;;;;;;;;;5011649;28;20418;-63
2022/03/20 11:56:55;;;;;;;0.67;0.67;;;;;;;;;;5011437;28;20931;-62
2022/03/20 11:59:44;;;;;;;0.83;0.83;;;;;;;;;;5011540;28;20435;-62
2022/03/20 12:02:12;;;;;;;0.40;0.40;;;;;;;;;;4993768;28;20401;-63
2022/03/20 12:04:46;;;;;;;0.40;0.40;;;;;;;;;;4993800;28;20509;-62
2022/03/20 12:07:26;;;;;;;0.60;0.60;;;;;;;;;;5011530;28;20744;-62
2022/03/20 12:10:02;;;;;;;0.97;0.97;;;;;;;;;;5010501;28;20413;-61
2022/03/20 12:12:48;;;;;;;0.53;0.53;;;;;;;;;;5010208;28;20946;-62
2022/03/20 12:15:19;;;;;;;0.93;0.93;;;;;;;;;;5008646;28;20395;-62
2022/03/20 12:17:58;;;;;;;0.30;0.30;;;;;;;;;;5007471;28;20418;-60
2022/03/20 12:20:43;;;;;;;0.80;0.80;;;;;;;;;;5007035;28;20523;-62
2022/03/20 12:23:27;;;;;;;0.30;0.30;;;;;;;;;;5011806;28;20890;-62
2022/03/20 12:25:54;;;;;;;0.30;0.30;;;;;;;;;;5014393;28;20423;-62
2022/03/20 12:28:30;;;;;;;0.60;0.60;;;;;;;;;;5014356;28;20448;-62
2022/03/20 12:30:56;;;;;;;0.70;0.70;;;;;;;;;;5014218;28;20530;-61
2022/03/20 12:33:26;;;;;;;0.53;0.53;;;;;;;;;;5014661;28;20411;-60
2022/03/20 12:35:52;;;;;;;0.67;0.67;;;;;;;;;;5014510;28;20778;-62
2022/03/20 12:38:35;;;;;;;0.53;0.53;;;;;;;;;;5014618;28;20505;-62
2022/03/20 12:41:13;;;;;;;0.53;0.53;;;;;;;;;;5014294;28;20805;-62
2022/03/20 12:43:40;;;;;;;0.73;0.73;;;;;;;;;;5014061;28;20420;-61
2022/03/20 12:46:07;;;;;;;0.80;0.80;;;;;;;;;;5014261;28;20504;-62
2022/03/20 12:48:35;;;;;;;270.47;257.33;;;;;;;;;;5014278;28;20416;-62
2022/03/20 12:51:09;;;;;;;286.77;273.07;;;;;;;;;;5013906;28;20484;-62
2022/03/20 12:53:43;;;;;;;302.27;287.47;;;;;;;;;;5014173;28;20405;-62
2022/03/20 12:58:41;;;;;;;256.73;245.27;;;;;;;;;;5014152;28;20412;-63
2022/03/20 13:01:07;;;;;;;267.73;255.07;;;;;;;;;;5013817;28;20527;-63
2022/03/20 13:03:34;;;;;;;272.70;259.87;;;;;;;;;;5014267;28;20391;-63
2022/03/20 13:06:01;;;;;;;276.17;262.80;;;;;;;;;;5014041;28;20416;-63
2022/03/20 13:08:29;;;;;;;257.73;245.17;;;;;;;;;;5013973;28;20395;-63
2022/03/20 13:10:56;;;;;;;243.50;231.13;;;;;;;;;;5013759;28;20871;-63
2022/03/20 13:13:29;;;;;;;285.90;270.97;;;;;;;;;;5013962;28;20414;-62
2022/03/20 13:15:56;;;;;;;285.03;270.27;;;;;;;;;;5013721;28;20424;-63
2022/03/20 13:18:26;;;;;;;256.00;243.03;;;;;;;;;;5013842;28;20798;-63
2022/03/20 13:20:52;;;;;;;269.47;255.63;;;;;;;;;;5013494;28;20876;-63
2022/03/20 13:23:20;;;;;;;273.03;259.03;;;;;;;;;;5013579;28;20416;-63
2022/03/20 13:25:46;;;;;;;285.40;270.50;;;;;;;;;;5013892;28;20896;-63
2022/03/20 13:28:29;;;;;;;227.37;215.93;;;;;;;;;;5013473;28;20456;-63
2022/03/20 13:30:59;;;;;;;260.33;246.20;;;;;;;;;;5013153;28;20498;-63
2022/03/20 13:33:35;;;;;;;264.20;250.53;;;;;;;;;;5013670;28;20393;-63
2022/03/20 13:36:03;;;;;;;261.00;247.70;;;;;;;;;;5012674;28;20420;-62
2022/03/20 13:38:33;;;;;;;255.57;242.07;;;;;;;;;;5013103;28;20775;-63
2022/03/20 13:41:09;;;;;;;274.53;259.53;;;;;;;;;;5013128;28;20500;-62
2022/03/20 13:43:35;;;;;;;264.53;249.83;;;;;;;;;;5012762;28;20423;-62
2022/03/20 13:46:20;;;;;;;264.77;250.03;;;;;;;;;;5012905;28;20420;-61
2022/03/20 13:48:47;;;;;;;273.33;257.97;;;;;;;;;;5012783;28;20422;-61
2022/03/20 13:51:13;;;;;;;263.53;248.97;;;;;;;;;;5005480;28;20811;-63
2022/03/20 13:53:41;;;;;;;267.57;252.03;;;;;;;;;;4999603;28;20417;-63
2022/03/20 13:56:19;;;;;;;263.17;248.83;;;;;;;;;;5012560;28;20834;-62
2022/03/20 13:59:01;;;;;;;270.70;256.40;;;;;;;;;;5012807;28;20423;-63
2022/03/20 14:01:27;;;;;;;249.77;236.50;;;;;;;;;;5012700;28;20884;-63
2022/03/20 14:03:54;;;;;;;151.27;144.97;;;;;;;;;;5012650;28;20427;-63
2022/03/20 14:06:20;;;;;;;246.70;233.33;;;;;;;;;;5012595;28;20451;-63
2022/03/20 14:08:53;;;;;;;271.70;257.27;;;;;;;;;;5012627;28;21096;-63
2022/03/20 14:11:36;;;;;;;253.57;240.90;;;;;;;;;;5012375;28;20507;-63
2022/03/20 14:14:02;;;;;;;249.37;236.17;;;;;;;;;;5012592;28;20389;-63
2022/03/20 14:16:28;;;;;;;257.63;244.63;;;;;;;;;;5012545;28;20429;-62
2022/03/20 14:18:53;;;;;;;251.70;238.17;;;;;;;;;;5012437;28;20408;-62
2022/03/20 14:21:31;;;;;;;212.40;202.10;;;;;;;;;;5012205;28;20404;-63
2022/03/20 14:24:02;;;;;;;92.43;88.67;;;;;;;;;;5012428;28;20772;-63
2022/03/20 14:26:29;;;;;;;230.27;218.50;;;;;;;;;;5012069;28;20792;-62
2022/03/20 14:29:10;;;;;;;231.60;219.77;;;;;;;;;;4994352;28;20420;-63
2022/03/20 14:40:06;;;;;;;214.13;203.47;;;;;;;;;;5012413;28;20432;-62
2022/03/20 14:42:35;;;;;;;276.80;261.00;;;;;;;;;;5012033;28;20409;-62
2022/03/20 14:45:05;;;;;;;272.57;256.47;;;;;;;;;;5012027;28;20403;-63
2022/03/20 14:47:31;;;;;;;298.33;280.40;;;;;;;;;;5011836;28;20431;-63
2022/03/20 14:49:57;;;;;;;296.20;278.33;;;;;;;;;;5011908;28;20404;-62
2022/03/20 14:52:23;;;;;;;304.33;285.67;;;;;;;;;;5010750;28;20632;-63
2022/03/20 14:54:53;;;;;;;277.23;259.03;;;;;;;;;;5020454;28;20411;-63
2022/03/20 14:57:19;;;;;;;255.60;241.87;;;;;;;;;;5013433;28;20469;-63
2022/03/20 14:59:45;;;;;;;222.60;211.07;;;;;;;;;;5009080;28;20480;-62